createdAt,value
2019-03-22T00:00:37.809Z,3.87
2019-03-22T00:03:09.611Z,3.97
2019-03-22T00:05:40.322Z,3.90
2019-03-22T00:08:11.423Z,4.13
2019-03-22T00:10:42.831Z,4.03
2019-03-22T00:13:13.611Z,4.00
2019-03-22T00:15:44.626Z,4.00
2019-03-22T00:18:15.693Z,4.60
2019-03-22T00:20:46.968Z,3.90
2019-03-22T00:23:18.073Z,3.90
2019-03-22T00:25:49.290Z,4.10
2019-03-22T00:28:20.373Z,4.13
2019-03-22T00:30:51.514Z,3.60
2019-03-22T00:33:22.665Z,4.67
2019-03-22T00:35:53.903Z,3.83
2019-03-22T00:38:25.418Z,3.83
2019-03-22T00:40:56.906Z,4.33
2019-03-22T00:43:27.678Z,4.37
2019-03-22T00:45:58.787Z,4.83
2019-03-22T00:48:30.515Z,4.93
2019-03-22T00:51:01.258Z,4.10
2019-03-22T00:53:31.989Z,4.33
2019-03-22T00:56:03.258Z,4.73
2019-03-22T00:58:33.980Z,4.53
2019-03-22T01:01:05.238Z,4.30
2019-03-22T01:03:35.971Z,4.40
2019-03-22T01:06:07.742Z,4.53
2019-03-22T01:08:38.874Z,4.40
2019-03-22T01:11:10.725Z,4.07
2019-03-22T01:13:41.565Z,4.67
2019-03-22T01:16:12.311Z,4.60
2019-03-22T01:18:43.758Z,4.80
2019-03-22T01:21:14.804Z,4.47
2019-03-22T01:23:45.619Z,4.40
2019-03-22T01:26:16.986Z,4.73
2019-03-22T01:28:48.234Z,4.50
2019-03-22T01:31:18.982Z,4.20
2019-03-22T01:33:50.214Z,3.87
2019-03-22T01:36:21.134Z,4.33
2019-03-22T01:38:52.319Z,4.43
2019-03-22T01:41:23.686Z,4.37
2019-03-22T01:43:54.856Z,4.10
2019-03-22T01:46:25.630Z,4.60
2019-03-22T01:48:56.771Z,4.47
2019-03-22T01:51:27.916Z,4.07
2019-03-22T01:53:59.015Z,4.70
2019-03-22T01:56:29.796Z,4.67
2019-03-22T01:59:00.671Z,4.60
2019-03-22T02:01:31.637Z,4.30
2019-03-22T02:04:02.351Z,4.40
2019-03-22T02:06:33.422Z,4.33
2019-03-22T02:09:06.120Z,4.33
2019-03-22T02:11:36.866Z,4.60
2019-03-22T02:14:07.902Z,4.67
2019-03-22T02:16:39.631Z,4.37
2019-03-22T02:19:11.087Z,4.77
2019-03-22T02:21:44.614Z,5.10
2019-03-22T02:24:15.403Z,4.70
2019-03-22T02:26:46.200Z,4.95
2019-03-22T02:29:16.972Z,4.47
2019-03-22T02:31:47.765Z,4.33
2019-03-22T02:34:19.611Z,4.30
2019-03-22T02:36:50.376Z,4.77
2019-03-22T02:39:21.787Z,4.97
2019-03-22T02:41:52.844Z,5.20
2019-03-22T02:44:23.579Z,5.07
2019-03-22T02:46:54.365Z,4.93
2019-03-22T02:49:25.460Z,4.70
2019-03-22T02:51:56.271Z,4.62
2019-03-22T02:54:27.437Z,4.80
2019-03-22T02:56:58.209Z,4.80
2019-03-22T02:59:29.378Z,4.80
2019-03-22T03:02:00.559Z,4.93
2019-03-22T03:04:31.486Z,4.07
2019-03-22T03:07:02.235Z,4.83
2019-03-22T03:09:33.050Z,4.50
2019-03-22T03:12:03.791Z,5.17
2019-03-22T03:14:34.689Z,5.10
2019-03-22T03:19:37.160Z,4.63
2019-03-22T03:22:08.278Z,5.20
2019-03-22T03:24:39.080Z,4.53
2019-03-22T03:27:09.831Z,4.53
2019-03-22T03:29:40.574Z,5.30
2019-03-22T03:32:11.713Z,5.27
2019-03-22T03:34:42.514Z,4.73
2019-03-22T03:37:13.306Z,3.95
2019-03-22T03:39:49.298Z,4.80
2019-03-22T03:42:20.528Z,4.67
2019-03-22T03:44:51.391Z,5.20
2019-03-22T03:47:22.622Z,4.77
2019-03-22T03:49:53.472Z,5.33
2019-03-22T03:52:24.349Z,5.10
2019-03-22T03:54:55.510Z,4.63
2019-03-22T03:57:26.242Z,4.30
2019-03-22T03:59:57.024Z,5.57
2019-03-22T04:02:28.022Z,4.50
2019-03-22T04:04:59.874Z,5.00
2019-03-22T04:07:31.027Z,4.37
2019-03-22T04:10:01.936Z,4.83
2019-03-22T04:12:32.883Z,5.20
2019-03-22T04:15:04.445Z,4.83
2019-03-22T04:17:35.496Z,4.78
2019-03-22T04:20:06.672Z,5.17
2019-03-22T04:22:38.245Z,5.33
2019-03-22T04:25:09.372Z,5.20
2019-03-22T04:27:40.162Z,4.77
2019-03-22T04:30:11.092Z,5.53
2019-03-22T04:32:41.946Z,5.37
2019-03-22T04:35:12.663Z,4.60
2019-03-22T04:37:43.501Z,4.90
2019-03-22T04:40:22.797Z,5.00
2019-03-22T04:42:54.088Z,4.50
2019-03-22T04:45:27.230Z,4.80
2019-03-22T04:48:04.085Z,5.20
2019-03-22T04:50:38.288Z,5.50
2019-03-22T04:53:10.869Z,5.60
2019-03-22T04:55:44.595Z,5.10
2019-03-22T04:58:17.307Z,5.77
2019-03-22T05:00:49.383Z,6.20
2019-03-22T05:03:21.946Z,6.30
2019-03-22T05:05:55.738Z,5.93
2019-03-22T05:08:29.792Z,6.07
2019-03-22T05:11:03.879Z,5.70
2019-03-22T05:13:36.110Z,6.47
2019-03-22T05:16:09.824Z,5.60
2019-03-22T05:18:44.144Z,5.63
2019-03-22T05:21:17.320Z,5.20
2019-03-22T05:23:50.598Z,5.43
2019-03-22T05:26:22.772Z,6.03
2019-03-22T05:28:54.033Z,6.57
2019-03-22T05:32:00.108Z,5.97
2019-03-22T05:34:30.916Z,6.07
2019-03-22T05:37:02.722Z,6.57
2019-03-22T05:39:34.127Z,6.40
2019-03-22T05:42:04.954Z,6.20
2019-03-22T05:44:35.763Z,6.53
2019-03-22T05:47:06.720Z,6.07
2019-03-22T05:49:37.475Z,6.77
2019-03-22T05:52:09.519Z,6.10
2019-03-22T05:54:40.352Z,6.60
2019-03-22T05:57:13.732Z,7.53
2019-03-22T05:59:44.507Z,7.10
2019-03-22T06:02:15.290Z,7.63
2019-03-22T06:04:46.512Z,6.23
2019-03-22T06:07:17.680Z,7.73
2019-03-22T06:09:48.519Z,6.97
2019-03-22T06:12:19.280Z,7.80
2019-03-22T06:14:50.051Z,7.50
2019-03-22T06:17:21.033Z,7.80
2019-03-22T06:19:52.208Z,7.57
2019-03-22T06:22:23.675Z,6.63
2019-03-22T06:24:54.415Z,6.07
2019-03-22T06:27:25.860Z,6.70
2019-03-22T06:29:56.640Z,7.07
2019-03-22T06:32:27.652Z,7.13
2019-03-22T06:34:58.467Z,6.50
2019-03-22T06:37:29.984Z,6.70
2019-03-22T06:40:01.411Z,6.57
2019-03-22T06:42:32.639Z,5.97
2019-03-22T06:45:03.763Z,6.50
2019-03-22T06:47:34.639Z,6.93
2019-03-22T06:50:07.474Z,5.57
2019-03-22T06:52:38.834Z,6.00
2019-03-22T06:55:09.863Z,6.67
2019-03-22T06:57:40.653Z,6.87
2019-03-22T07:00:12.827Z,6.27
2019-03-22T07:02:43.547Z,7.03
2019-03-22T07:05:14.416Z,7.00
2019-03-22T07:07:45.537Z,6.70
2019-03-22T07:10:16.447Z,7.30
2019-03-22T07:12:47.220Z,7.10
2019-03-22T07:15:18.417Z,6.70
2019-03-22T07:17:49.206Z,7.23
2019-03-22T07:20:21.718Z,7.08
2019-03-22T07:22:52.424Z,6.73
2019-03-22T07:25:23.706Z,7.00
2019-03-22T07:27:55.059Z,7.17
2019-03-22T07:30:26.205Z,7.23
2019-03-22T07:32:56.997Z,7.17
2019-03-22T07:35:27.784Z,6.47
2019-03-22T07:37:59.030Z,6.17
2019-03-22T07:40:29.791Z,6.23
2019-03-22T07:43:00.566Z,7.20
2019-03-22T07:45:31.697Z,7.00
2019-03-22T07:48:02.433Z,6.87
2019-03-22T07:50:33.514Z,6.67
2019-03-22T07:53:04.426Z,6.97
2019-03-22T07:55:36.005Z,6.90
2019-03-22T07:58:07.161Z,7.43
2019-03-22T08:00:38.305Z,6.50
2019-03-22T08:03:09.346Z,7.43
2019-03-22T08:05:50.978Z,7.70
2019-03-22T08:08:12.989Z,6.43
2019-03-22T08:10:44.413Z,6.83
2019-03-22T08:13:15.533Z,7.43
2019-03-22T08:15:46.438Z,7.20
2019-03-22T08:18:17.734Z,6.50
2019-03-22T08:20:48.587Z,7.33
2019-03-22T08:23:21.198Z,7.20
2019-03-22T08:25:52.307Z,7.50
2019-03-22T08:28:23.443Z,7.47
2019-03-22T08:30:54.214Z,6.90
2019-03-22T08:33:25.659Z,8.33
2019-03-22T08:35:56.437Z,7.10
2019-03-22T08:38:27.246Z,7.40
2019-03-22T08:40:58.201Z,7.17
2019-03-22T08:43:29.305Z,6.63
2019-03-22T08:46:00.369Z,6.77
2019-03-22T08:48:32.309Z,7.87
2019-03-22T08:51:03.167Z,9.17
2019-03-22T08:53:34.586Z,7.80
2019-03-22T08:56:05.424Z,8.37
2019-03-22T08:58:37.674Z,7.63
2019-03-22T09:01:10.165Z,8.30
2019-03-22T09:03:41.300Z,7.73
2019-03-22T09:06:12.441Z,7.97
2019-03-22T09:08:43.679Z,8.27
2019-03-22T09:11:14.742Z,7.33
2019-03-22T09:13:45.995Z,7.20
2019-03-22T09:16:17.710Z,7.37
2019-03-22T09:18:49.121Z,8.10
2019-03-22T09:21:20.120Z,7.90
2019-03-22T09:23:51.658Z,7.90
2019-03-22T09:26:22.451Z,8.10
2019-03-22T09:28:53.269Z,7.47
2019-03-22T09:31:24.226Z,8.13
2019-03-22T09:33:55.005Z,7.90
2019-03-22T09:36:26.639Z,8.47
2019-03-22T09:38:57.598Z,7.50
2019-03-22T09:41:28.308Z,7.43
2019-03-22T09:43:59.393Z,7.77
2019-03-22T09:46:30.195Z,7.87
2019-03-22T09:49:00.979Z,7.30
2019-03-22T09:51:32.977Z,6.70
2019-03-22T09:54:03.847Z,6.87
2019-03-22T09:56:46.278Z,5.27
2019-03-22T09:59:07.392Z,6.42
2019-03-22T10:01:38.965Z,6.17
2019-03-22T10:04:10.018Z,6.30
2019-03-22T10:06:41.086Z,6.47
2019-03-22T10:09:12.175Z,7.20
2019-03-22T10:11:42.876Z,7.05
2019-03-22T10:14:13.650Z,7.00
2019-03-22T10:16:47.338Z,6.72
2019-03-22T10:19:17.781Z,6.50
2019-03-22T10:21:49.907Z,6.78
2019-03-22T10:24:20.649Z,6.43
2019-03-22T10:26:51.432Z,6.22
2019-03-22T10:29:22.311Z,6.17
2019-03-22T10:31:53.156Z,6.60
2019-03-22T10:34:25.342Z,7.30
2019-03-22T10:36:56.842Z,6.40
2019-03-22T10:39:27.702Z,7.25
2019-03-22T10:41:59.200Z,7.10
2019-03-22T10:44:30.846Z,7.30
2019-03-22T10:47:02.191Z,6.35
2019-03-22T10:49:33.487Z,6.45
2019-03-22T10:52:04.989Z,7.53
2019-03-22T10:54:36.065Z,7.40
2019-03-22T10:57:07.275Z,7.57
2019-03-22T10:59:38.093Z,7.20
2019-03-22T11:02:09.203Z,7.58
2019-03-22T11:04:40.281Z,6.95
2019-03-22T11:07:12.596Z,7.17
2019-03-22T11:09:43.777Z,7.08
2019-03-22T11:12:14.532Z,7.65
2019-03-22T11:14:45.893Z,6.88
2019-03-22T11:17:16.721Z,7.23
2019-03-22T11:19:47.786Z,7.80
2019-03-22T11:22:18.658Z,7.97
2019-03-22T11:24:49.459Z,6.95
2019-03-22T11:27:22.074Z,7.22
2019-03-22T11:29:52.867Z,6.80
2019-03-22T11:32:23.751Z,8.27
2019-03-22T11:34:54.564Z,8.85
2019-03-22T11:37:25.394Z,6.80
2019-03-22T11:39:56.519Z,8.08
2019-03-22T11:42:27.810Z,6.70
2019-03-22T11:44:59.758Z,7.57
2019-03-22T11:47:30.464Z,7.83
2019-03-22T11:50:01.481Z,7.65
2019-03-22T11:52:32.487Z,6.92
2019-03-22T11:55:03.596Z,6.35
2019-03-22T11:57:34.301Z,6.15
2019-03-22T12:00:08.890Z,7.08
2019-03-22T12:02:40.094Z,7.50
2019-03-22T12:05:11.272Z,6.20
2019-03-22T12:07:41.993Z,7.08
2019-03-22T12:10:13.677Z,6.55
2019-03-22T12:12:44.472Z,7.37
2019-03-22T12:15:17.585Z,6.85
2019-03-22T12:17:48.456Z,6.63
2019-03-22T12:20:20.522Z,6.80
2019-03-22T12:22:51.344Z,6.92
2019-03-22T12:25:24.446Z,6.95
2019-03-22T12:27:55.654Z,6.85
2019-03-22T12:30:26.481Z,6.53
2019-03-22T12:32:57.258Z,7.67
2019-03-22T12:35:28.331Z,6.15
2019-03-22T12:37:59.155Z,7.60
2019-03-22T12:40:30.112Z,6.72
2019-03-22T12:43:00.844Z,6.53
2019-03-22T12:45:33.144Z,7.05
2019-03-22T12:48:04.594Z,6.12
2019-03-22T12:50:35.736Z,6.83
2019-03-22T12:53:06.595Z,6.00
2019-03-22T12:55:37.799Z,5.87
2019-03-22T12:58:08.584Z,6.67
2019-03-22T13:00:39.679Z,5.75
2019-03-22T13:03:11.391Z,6.75
2019-03-22T13:05:42.125Z,6.45
2019-03-22T13:08:12.946Z,6.53
2019-03-22T13:10:43.759Z,6.42
2019-03-22T13:13:14.616Z,7.53
2019-03-22T13:15:45.493Z,7.00
2019-03-22T13:18:16.299Z,6.43
2019-03-22T13:20:47.297Z,7.28
2019-03-22T13:23:18.080Z,6.80
2019-03-22T13:25:48.867Z,6.08
2019-03-22T13:28:19.919Z,6.62
2019-03-22T13:30:51.114Z,7.20
2019-03-22T13:33:21.835Z,5.95
2019-03-22T13:35:52.915Z,6.12
2019-03-22T13:38:23.747Z,5.67
2019-03-22T13:40:54.810Z,6.30
2019-03-22T13:43:25.623Z,5.20
2019-03-22T13:45:56.699Z,5.60
2019-03-22T13:48:27.833Z,5.53
2019-03-22T13:50:58.687Z,5.83
2019-03-22T13:53:29.402Z,5.00
2019-03-22T13:56:00.342Z,5.03
2019-03-22T13:58:32.224Z,5.47
2019-03-22T14:01:03.039Z,4.80
2019-03-22T14:03:34.083Z,5.70
2019-03-22T14:06:04.918Z,5.70
2019-03-22T14:08:35.704Z,5.85
2019-03-22T14:11:06.483Z,5.53
2019-03-22T14:13:37.269Z,5.45
2019-03-22T14:16:08.131Z,6.20
2019-03-22T14:18:38.938Z,5.40
2019-03-22T14:21:10.001Z,4.97
2019-03-22T14:23:40.806Z,5.00
2019-03-22T14:26:11.677Z,4.67
2019-03-22T14:28:42.763Z,4.42
2019-03-22T14:31:13.590Z,4.45
2019-03-22T14:33:44.374Z,4.83
2019-03-22T14:36:15.163Z,4.53
2019-03-22T14:38:46.273Z,5.15
2019-03-22T14:41:17.568Z,4.55
2019-03-22T14:43:48.338Z,5.75
2019-03-22T14:46:19.122Z,5.40
2019-03-22T14:48:49.935Z,4.17
2019-03-22T14:51:20.703Z,4.25
2019-03-22T14:53:51.983Z,4.95
2019-03-22T14:56:22.880Z,4.30
2019-03-22T14:58:53.663Z,5.70
2019-03-22T15:01:24.469Z,4.33
2019-03-22T15:03:55.232Z,4.35
2019-03-22T15:06:26.038Z,5.28
2019-03-22T15:08:57.179Z,4.62
2019-03-22T15:11:28.096Z,4.63
2019-03-22T15:14:04.148Z,4.78
2019-03-22T15:17:12.085Z,4.30
2019-03-22T15:20:11.403Z,4.23
2019-03-22T15:22:59.826Z,4.17
2019-03-22T15:25:43.384Z,3.55
2019-03-22T15:28:31.810Z,3.40
2019-03-22T15:31:28.018Z,3.17
2019-03-22T15:34:27.546Z,4.03
2019-03-22T15:37:16.361Z,3.42
2019-03-22T15:40:00.659Z,3.70
2019-03-22T15:42:31.805Z,3.47
2019-03-22T15:45:04.145Z,3.58
2019-03-22T15:47:34.911Z,3.55
2019-03-22T15:50:07.977Z,3.85
2019-03-22T15:52:39.041Z,3.52
2019-03-22T15:55:10.433Z,3.26
2019-03-22T15:57:41.222Z,3.60
2019-03-22T16:00:15.445Z,4.43
2019-03-22T16:02:46.998Z,3.75
2019-03-22T16:05:18.074Z,3.77
2019-03-22T16:07:49.184Z,4.35
2019-03-22T16:10:19.964Z,4.37
2019-03-22T16:12:51.475Z,4.15
2019-03-22T16:15:22.616Z,4.17
2019-03-22T16:17:53.639Z,4.15
2019-03-22T16:20:24.697Z,4.35
2019-03-22T16:22:55.844Z,4.58
2019-03-22T16:25:26.723Z,4.70
2019-03-22T16:27:57.891Z,4.85
2019-03-22T16:30:28.612Z,4.65
2019-03-22T16:33:00.008Z,4.70
2019-03-22T16:35:30.800Z,4.42
2019-03-22T16:38:01.876Z,4.50
2019-03-22T16:40:33.053Z,5.10
2019-03-22T16:43:04.179Z,4.50
2019-03-22T16:45:42.652Z,4.58
2019-03-22T16:48:13.423Z,4.42
2019-03-22T16:50:44.242Z,4.17
2019-03-22T16:53:14.931Z,4.80
2019-03-22T16:55:46.151Z,4.35
2019-03-22T16:58:17.770Z,4.23
2019-03-22T17:00:49.947Z,4.10
2019-03-22T17:03:20.915Z,4.17
2019-03-22T17:05:51.788Z,4.70
2019-03-22T17:08:22.636Z,4.67
2019-03-22T17:10:53.559Z,4.58
2019-03-22T17:13:24.374Z,4.30
2019-03-22T17:15:55.224Z,4.35
2019-03-22T17:18:26.949Z,3.65
2019-03-22T17:20:58.402Z,4.30
2019-03-22T17:23:29.542Z,4.42
2019-03-22T17:26:00.588Z,4.65
2019-03-22T17:28:31.330Z,5.08
2019-03-22T17:31:02.428Z,4.95
2019-03-22T17:33:33.520Z,5.47
2019-03-22T17:36:05.026Z,4.78
2019-03-22T17:38:36.228Z,4.83
2019-03-22T17:41:07.370Z,5.08
2019-03-22T17:43:38.496Z,4.95
2019-03-22T17:46:09.279Z,4.92
2019-03-22T17:48:41.401Z,6.38
2019-03-22T17:51:12.689Z,5.90
2019-03-22T17:53:44.214Z,5.77
2019-03-22T17:56:15.727Z,5.80
2019-03-22T17:58:47.207Z,5.25
2019-03-22T18:01:19.059Z,5.42
2019-03-22T18:03:50.215Z,5.22
2019-03-22T18:06:21.413Z,5.70
2019-03-22T18:08:52.193Z,5.47
2019-03-22T18:11:23.108Z,4.72
2019-03-22T18:13:54.254Z,4.80
2019-03-22T18:16:25.500Z,5.20
2019-03-22T18:18:57.269Z,5.55
2019-03-22T18:21:28.128Z,6.67
2019-03-22T18:23:58.874Z,6.35
2019-03-22T18:26:29.712Z,6.72
2019-03-22T18:29:01.607Z,5.87
2019-03-22T18:31:32.330Z,6.37
2019-03-22T18:34:03.143Z,6.67
2019-03-22T18:36:34.569Z,7.37
2019-03-22T18:39:07.756Z,6.50
2019-03-22T18:41:39.028Z,6.23
2019-03-22T18:44:09.884Z,7.12
2019-03-22T18:46:41.524Z,7.26
2019-03-22T18:49:12.477Z,7.67
2019-03-22T18:51:43.671Z,7.58
2019-03-22T18:54:15.246Z,9.10
2019-03-22T18:56:46.094Z,8.98
2019-03-22T18:59:17.262Z,8.17
2019-03-22T19:01:48.460Z,8.07
2019-03-22T19:04:20.024Z,7.30
2019-03-22T19:06:50.908Z,7.17
2019-03-22T19:09:22.111Z,6.60
2019-03-22T19:11:53.758Z,7.10
2019-03-22T19:14:26.471Z,6.85
2019-03-22T19:16:57.380Z,7.37
2019-03-22T19:19:28.611Z,6.73
2019-03-22T19:22:00.053Z,9.30
2019-03-22T19:24:31.139Z,9.77
2019-03-22T19:27:02.367Z,8.37
2019-03-22T19:29:33.662Z,8.10
2019-03-22T19:32:13.266Z,10.80
2019-03-22T19:34:37.531Z,8.90
2019-03-22T19:37:08.258Z,7.87
2019-03-22T19:39:39.629Z,7.13
2019-03-22T19:42:11.066Z,7.13
2019-03-22T19:44:43.147Z,8.17
2019-03-22T19:47:13.977Z,7.50
2019-03-22T19:49:45.367Z,7.47
2019-03-22T19:52:16.135Z,7.33
2019-03-22T19:54:47.207Z,7.63
2019-03-22T19:57:18.079Z,7.87
2019-03-22T19:59:49.687Z,7.17
2019-03-22T20:02:22.053Z,7.70
2019-03-22T20:05:04.238Z,6.33
2019-03-22T20:07:27.224Z,8.00
2019-03-22T20:09:58.128Z,8.27
2019-03-22T20:12:29.206Z,7.97
2019-03-22T20:15:00.041Z,7.77
2019-03-22T20:17:30.877Z,8.13
2019-03-22T20:20:02.503Z,8.10
2019-03-22T20:22:33.342Z,7.73
2019-03-22T20:25:04.200Z,8.60
2019-03-22T20:27:35.044Z,9.10
2019-03-22T20:30:07.125Z,9.03
2019-03-22T20:32:37.932Z,8.03
2019-03-22T20:35:16.061Z,7.73
2019-03-22T20:37:42.404Z,9.90
2019-03-22T20:40:14.978Z,9.00
2019-03-22T20:42:46.460Z,9.33
2019-03-22T20:45:24.177Z,8.37
2019-03-22T20:47:50.234Z,8.07
2019-03-22T20:50:22.603Z,7.83
2019-03-22T20:52:54.464Z,8.53
2019-03-22T20:55:25.264Z,7.90
2019-03-22T20:57:56.045Z,8.00
2019-03-22T21:00:27.508Z,7.57
2019-03-22T21:02:59.279Z,7.33
2019-03-22T21:05:30.033Z,7.33
2019-03-22T21:08:01.691Z,6.77
2019-03-22T21:10:32.915Z,6.77
2019-03-22T21:13:03.743Z,7.03
2019-03-22T21:15:34.755Z,7.57
2019-03-22T21:18:05.600Z,7.63
2019-03-22T21:20:37.074Z,7.00
2019-03-22T21:23:08.317Z,7.50
2019-03-22T21:25:39.710Z,7.50
2019-03-22T21:28:11.192Z,6.90
2019-03-22T21:30:41.915Z,7.10
2019-03-22T21:33:12.738Z,8.37
2019-03-22T21:35:43.807Z,8.07
2019-03-22T21:38:15.803Z,7.83
2019-03-22T21:40:47.230Z,8.00
2019-03-22T21:43:18.067Z,7.93
2019-03-22T21:45:49.230Z,7.50
2019-03-22T21:48:20.046Z,7.90
2019-03-22T21:50:50.830Z,12.27
2019-03-22T21:53:22.185Z,12.17
2019-03-22T21:55:54.283Z,17.97
2019-03-22T21:58:25.904Z,16.47
2019-03-22T22:00:56.636Z,14.03
2019-03-22T22:03:28.680Z,12.00
2019-03-22T22:05:59.872Z,12.20
2019-03-22T22:08:31.040Z,11.73
2019-03-22T22:11:02.530Z,10.60
2019-03-22T22:13:34.059Z,10.13
2019-03-22T22:16:05.334Z,11.03
2019-03-22T22:18:36.648Z,9.67
2019-03-22T22:21:07.796Z,7.97
2019-03-22T22:23:38.929Z,14.67
2019-03-22T22:26:10.523Z,9.57
2019-03-22T22:28:42.439Z,7.67
2019-03-22T22:31:13.488Z,6.83
2019-03-22T22:33:44.641Z,7.37
2019-03-22T22:36:17.515Z,7.80
2019-03-22T22:38:48.430Z,7.03
2019-03-22T22:41:19.269Z,7.43
2019-03-22T22:43:50.505Z,7.40
2019-03-22T22:46:21.575Z,6.60
2019-03-22T22:48:52.352Z,7.73
2019-03-22T22:51:24.382Z,6.67
2019-03-22T22:53:55.223Z,6.90
2019-03-22T22:56:26.590Z,6.40
2019-03-22T22:58:58.027Z,7.90
2019-03-22T23:01:29.639Z,7.97
2019-03-22T23:04:00.909Z,8.57
2019-03-22T23:06:32.471Z,7.93
2019-03-22T23:09:03.589Z,7.60
2019-03-22T23:11:36.295Z,7.87
2019-03-22T23:14:07.950Z,7.60
2019-03-22T23:16:39.301Z,8.00
2019-03-22T23:19:11.453Z,9.40
2019-03-22T23:21:42.373Z,9.30
2019-03-22T23:24:13.661Z,9.50
2019-03-22T23:26:45.027Z,7.47
2019-03-22T23:29:17.167Z,7.27
2019-03-22T23:31:49.265Z,7.33
2019-03-22T23:34:21.425Z,6.80
2019-03-22T23:36:52.247Z,7.10
2019-03-22T23:39:23.758Z,5.87
2019-03-22T23:41:55.322Z,6.13
2019-03-22T23:44:26.490Z,5.70
2019-03-22T23:46:57.846Z,6.40
2019-03-22T23:49:29.498Z,6.77
2019-03-22T23:52:00.396Z,6.47
2019-03-22T23:54:31.727Z,6.37
2019-03-22T23:57:02.963Z,7.20
2019-03-22T23:59:35.198Z,6.57
